Venia, Virginia
Current Conditions -  °F | °C
As of 8:35 PM on Wednesday 22 Oct 2014 (Local Time) from KJFZ Reporting Station
Haze Haze  
Wind Chill: 40°   Ceiling: 300
Heat Index: 44°   Visibility: 5mi
Dew Point: 43°   Wind: 8mph
Humidity: 94%   Direction: 320°NW
Pressure: 30.19"   Gusts: NA
Location:  37.0328°N, 82.0042°W
Report Text: KJFZ 230035Z AUTO 32007KT 5SM BR BKN003 OVC007 07/06 A3019 RMK AO2 T00690060
Loading
Personal Weather Stations






























Interactive Weather Map
Tropical Storm Tracking
New forecast layout! Learn more

10-Day Weather Forecast

Advertisements
Track Severe Weather on mobile